Time;durP1;ratioP1;P1;durP2;ratioP2;P2;SDS_P1;SDS_P2;PMS_P1;PMS_P2;Temp;Humidity;BMP_temperature;BMP_pressure;BME280_temperature;BME280_humidity;BME280_pressure;Samples;Min_cycle;Max_cycle;Signal;HPM_P1;HPM_P2
2022/11/24 00:00:27;;;;;;;5.05;2.75;;;;;;;;;;5091190;28;20024;-39
2022/11/24 00:02:53;;;;;;;5.15;2.70;;;;;;;;;;5094138;28;20032;-39
2022/11/24 00:05:19;;;;;;;5.07;2.95;;;;;;;;;;5090407;28;20491;-38
2022/11/24 00:07:45;;;;;;;8.13;3.53;;;;;;;;;;5090736;28;20039;-39
2022/11/24 00:10:11;;;;;;;7.72;3.92;;;;;;;;;;5090997;28;20020;-39
2022/11/24 00:12:37;;;;;;;6.68;3.60;;;;;;;;;;5101405;28;20034;-39
2022/11/24 00:15:03;;;;;;;7.70;3.30;;;;;;;;;;5110507;28;20497;-39
2022/11/24 00:17:29;;;;;;;6.00;2.83;;;;;;;;;;5110600;28;20032;-39
2022/11/24 00:19:55;;;;;;;4.88;2.35;;;;;;;;;;5105943;28;20020;-39
2022/11/24 00:22:21;;;;;;;6.15;2.75;;;;;;;;;;5103858;28;20032;-39
2022/11/24 00:24:47;;;;;;;3.90;1.98;;;;;;;;;;5109604;28;20027;-39
2022/11/24 00:27:13;;;;;;;4.35;2.30;;;;;;;;;;5111015;28;20566;-39
2022/11/24 00:29:39;;;;;;;5.22;1.70;;;;;;;;;;5110497;28;20072;-38
2022/11/24 00:32:06;;;;;;;4.20;1.88;;;;;;;;;;5097245;28;20036;-39
2022/11/24 00:34:32;;;;;;;5.07;2.38;;;;;;;;;;5089982;28;20078;-39
2022/11/24 00:36:58;;;;;;;4.05;1.83;;;;;;;;;;5088948;28;20077;-39
2022/11/24 00:39:24;;;;;;;5.32;2.30;;;;;;;;;;5089940;28;20024;-39
2022/11/24 00:41:50;;;;;;;8.45;4.18;;;;;;;;;;5099022;28;20067;-39
2022/11/24 00:44:16;;;;;;;6.68;3.60;;;;;;;;;;5110793;28;20096;-39
2022/11/24 00:46:42;;;;;;;7.68;3.95;;;;;;;;;;5095090;27;20081;-38
2022/11/24 00:49:08;;;;;;;7.18;3.30;;;;;;;;;;5089688;28;20069;-39
2022/11/24 00:51:34;;;;;;;6.53;3.83;;;;;;;;;;5092571;28;20080;-39
2022/11/24 00:54:00;;;;;;;7.68;3.97;;;;;;;;;;5110073;28;20020;-38
2022/11/24 00:56:27;;;;;;;8.13;3.47;;;;;;;;;;5109953;28;20093;-39
2022/11/24 00:58:53;;;;;;;5.90;3.15;;;;;;;;;;5109870;28;20020;-39
2022/11/24 01:01:24;;;;;;;4.97;3.03;;;;;;;;;;5107887;28;20402;-39
2022/11/24 06:09:58;;;;;;;3.25;2.20;;;;;;;;;;5097842;28;20028;-38
2022/11/24 06:12:24;;;;;;;3.80;2.53;;;;;;;;;;5113549;28;20034;-38
2022/11/24 06:14:50;;;;;;;4.47;2.65;;;;;;;;;;5098137;28;20020;-38
2022/11/24 06:17:16;;;;;;;4.72;2.38;;;;;;;;;;5111150;28;20471;-38
2022/11/24 06:19:45;;;;;;;4.75;3.00;;;;;;;;;;5110571;28;20031;-39
2022/11/24 06:22:11;;;;;;;4.15;2.78;;;;;;;;;;5114724;28;20094;-38
2022/11/24 06:24:37;;;;;;;4.85;2.67;;;;;;;;;;5089119;28;20043;-38
2022/11/24 06:27:03;;;;;;;3.78;2.47;;;;;;;;;;5096032;28;20476;-38
2022/11/24 06:29:29;;;;;;;4.88;2.80;;;;;;;;;;5111255;28;20039;-38
2022/11/24 06:31:55;;;;;;;5.40;3.10;;;;;;;;;;5105733;28;20407;-38
2022/11/24 06:34:21;;;;;;;6.43;3.25;;;;;;;;;;5105930;28;20032;-38
2022/11/24 06:36:47;;;;;;;6.05;2.90;;;;;;;;;;5093809;28;20435;-38
2022/11/24 06:39:13;;;;;;;6.82;3.15;;;;;;;;;;5094066;28;20028;-38
2022/11/24 06:41:39;;;;;;;6.10;3.30;;;;;;;;;;5112177;28;20039;-38
2022/11/24 06:44:05;;;;;;;6.55;3.30;;;;;;;;;;5113605;28;20027;-38
2022/11/24 06:46:31;;;;;;;6.55;3.33;;;;;;;;;;5113928;28;20011;-38
2022/11/24 06:48:58;;;;;;;5.32;3.38;;;;;;;;;;5096261;28;20115;-38
2022/11/24 06:51:25;;;;;;;5.50;2.95;;;;;;;;;;5079377;28;21810;-38
2022/11/24 06:53:51;;;;;;;5.90;2.97;;;;;;;;;;5102580;28;20081;-38
2022/11/24 06:56:18;;;;;;;4.75;2.47;;;;;;;;;;5098923;28;20379;-39
2022/11/24 06:58:46;;;;;;;4.07;2.60;;;;;;;;;;5104189;28;20052;-38
2022/11/24 07:01:16;;;;;;;3.35;2.15;;;;;;;;;;5114064;28;20581;-38
2022/11/24 07:03:42;;;;;;;6.25;1.98;;;;;;;;;;5113812;28;20051;-38
2022/11/24 07:06:08;;;;;;;5.65;2.55;;;;;;;;;;5113500;28;20529;-38
2022/11/24 07:08:34;;;;;;;5.28;2.28;;;;;;;;;;5113691;28;20032;-38
2022/11/24 07:11:07;;;;;;;3.55;2.45;;;;;;;;;;5097618;28;20028;-39
2022/11/24 07:13:34;;;;;;;4.85;2.58;;;;;;;;;;5102010;28;20067;-38
2022/11/24 07:16:00;;;;;;;3.42;2.20;;;;;;;;;;5094471;28;20104;-38
2022/11/24 07:18:26;;;;;;;5.68;2.58;;;;;;;;;;5097967;28;20032;-38
2022/11/24 07:20:52;;;;;;;5.07;1.92;;;;;;;;;;5102126;28;20024;-38
2022/11/24 07:23:18;;;;;;;3.22;1.90;;;;;;;;;;5103200;28;20028;-38
2022/11/24 07:25:44;;;;;;;3.83;2.35;;;;;;;;;;5092611;28;20047;-38
2022/11/24 07:28:10;;;;;;;5.60;2.90;;;;;;;;;;5092624;28;20475;-38
2022/11/24 07:30:36;;;;;;;5.00;2.92;;;;;;;;;;5092722;28;20020;-38
2022/11/24 07:33:03;;;;;;;5.18;2.53;;;;;;;;;;5091972;28;20028;-38
2022/11/24 07:35:29;;;;;;;5.32;2.97;;;;;;;;;;5091311;28;20247;-38
2022/11/24 07:37:55;;;;;;;6.97;3.33;;;;;;;;;;5091671;28;20182;-38
2022/11/24 07:40:22;;;;;;;4.20;2.72;;;;;;;;;;5091552;28;20032;-38
2022/11/24 07:42:48;;;;;;;4.38;3.10;;;;;;;;;;5091968;28;20423;-38
2022/11/24 07:45:14;;;;;;;8.43;4.40;;;;;;;;;;5091509;28;20028;-38
2022/11/24 07:47:40;;;;;;;13.40;6.40;;;;;;;;;;5091550;28;20066;-38
2022/11/24 07:50:08;;;;;;;16.25;8.07;;;;;;;;;;5091361;28;20024;-38
2022/11/24 07:52:34;;;;;;;17.65;8.80;;;;;;;;;;5091326;28;20024;-38
2022/11/24 07:55:00;;;;;;;15.70;7.47;;;;;;;;;;5091286;28;20020;-38
2022/11/24 07:57:27;;;;;;;11.13;5.70;;;;;;;;;;5091352;28;20048;-38
2022/11/24 07:59:54;;;;;;;10.63;5.55;;;;;;;;;;5091246;28;20054;-39
2022/11/24 08:02:20;;;;;;;7.93;3.90;;;;;;;;;;5091251;28;20056;-38
2022/11/24 08:04:46;;;;;;;6.63;3.60;;;;;;;;;;5091552;28;20050;-38
2022/11/24 08:07:12;;;;;;;6.57;3.60;;;;;;;;;;5091290;28;20476;-38
2022/11/24 08:09:39;;;;;;;4.53;2.75;;;;;;;;;;5098721;28;20023;-38
2022/11/24 08:12:05;;;;;;;4.88;2.70;;;;;;;;;;5109960;28;20114;-38
2022/11/24 08:14:31;;;;;;;7.93;3.83;;;;;;;;;;5099395;28;20096;-38
2022/11/24 08:16:57;;;;;;;4.35;2.70;;;;;;;;;;5089136;28;20040;-38
2022/11/24 08:19:23;;;;;;;8.10;3.08;;;;;;;;;;5089829;28;20089;-39
2022/11/24 08:21:49;;;;;;;5.95;2.88;;;;;;;;;;5089293;28;20210;-38
2022/11/24 08:24:15;;;;;;;3.88;2.42;;;;;;;;;;5089436;28;20026;-38
2022/11/24 08:26:42;;;;;;;3.88;2.70;;;;;;;;;;5089187;28;20030;-38
2022/11/24 08:29:08;;;;;;;6.35;3.35;;;;;;;;;;5089165;28;20430;-38
2022/11/24 08:31:35;;;;;;;4.78;3.17;;;;;;;;;;5088892;28;20107;-38
2022/11/24 08:34:02;;;;;;;5.00;2.72;;;;;;;;;;5089139;28;20020;-38
2022/11/24 08:36:28;;;;;;;4.95;3.05;;;;;;;;;;5089160;28;20024;-38
2022/11/24 08:38:55;;;;;;;4.72;2.97;;;;;;;;;;5089683;28;20024;-38
2022/11/24 08:41:21;;;;;;;6.78;3.10;;;;;;;;;;5088862;28;20383;-38
2022/11/24 08:43:47;;;;;;;5.88;3.30;;;;;;;;;;5088938;28;20035;-38
2022/11/24 08:46:17;;;;;;;4.18;2.47;;;;;;;;;;5088001;28;20479;-38
2022/11/24 08:48:47;;;;;;;3.88;2.33;;;;;;;;;;5089032;28;20052;-38
2022/11/24 08:51:14;;;;;;;4.55;2.67;;;;;;;;;;5089029;28;20028;-38
2022/11/24 08:53:40;;;;;;;4.00;2.33;;;;;;;;;;5088638;28;20394;-38
2022/11/24 08:56:07;;;;;;;4.20;2.78;;;;;;;;;;5088742;28;20027;-38
2022/11/24 08:58:34;;;;;;;4.70;2.20;;;;;;;;;;5088640;28;20031;-39
2022/11/24 09:01:07;;;;;;;5.13;2.60;;;;;;;;;;5088754;28;20097;-38
2022/11/24 09:03:33;;;;;;;4.80;2.27;;;;;;;;;;5088648;28;20153;-38
2022/11/24 09:05:59;;;;;;;3.53;2.40;;;;;;;;;;5088950;28;20032;-39
2022/11/24 09:08:25;;;;;;;4.70;2.05;;;;;;;;;;5089172;28;20036;-38
2022/11/24 09:10:51;;;;;;;3.50;1.90;;;;;;;;;;5088369;28;20027;-39
2022/11/24 09:13:17;;;;;;;4.85;2.20;;;;;;;;;;5088399;28;20118;-38
2022/11/24 09:15:43;;;;;;;5.35;2.20;;;;;;;;;;5088507;28;20046;-38
2022/11/24 09:18:09;;;;;;;3.22;1.95;;;;;;;;;;5088581;28;20032;-39
2022/11/24 09:20:35;;;;;;;4.13;2.13;;;;;;;;;;5088608;28;20039;-38
2022/11/24 09:23:01;;;;;;;3.78;2.13;;;;;;;;;;5088490;28;20103;-39
2022/11/24 09:25:27;;;;;;;4.07;2.30;;;;;;;;;;5089098;28;20552;-39
2022/11/24 09:27:55;;;;;;;3.08;1.85;;;;;;;;;;5088377;28;20035;-39
2022/11/24 09:30:22;;;;;;;3.78;2.10;;;;;;;;;;5088401;28;20540;-39
2022/11/24 09:32:48;;;;;;;5.68;2.03;;;;;;;;;;5088356;28;20032;-38
2022/11/24 09:35:14;;;;;;;2.88;1.80;;;;;;;;;;5088423;28;20020;-39
2022/11/24 09:37:43;;;;;;;2.28;1.65;;;;;;;;;;5088311;28;20490;-39
2022/11/24 09:40:11;;;;;;;4.63;1.98;;;;;;;;;;5088248;28;20563;-38
2022/11/24 09:42:43;;;;;;;2.20;1.48;;;;;;;;;;5088303;28;20067;-38
2022/11/24 09:45:12;;;;;;;1.70;1.40;;;;;;;;;;5088311;28;20048;-39
2022/11/24 09:47:46;;;;;;;2.05;1.48;;;;;;;;;;5088240;28;20039;-39
2022/11/24 09:50:15;;;;;;;2.38;1.65;;;;;;;;;;5088171;28;20487;-39
2022/11/24 09:53:02;;;;;;;2.05;1.42;;;;;;;;;;5088163;28;20024;-38
2022/11/24 09:55:39;;;;;;;3.17;1.92;;;;;;;;;;5088739;28;20028;-38
2022/11/24 09:58:30;;;;;;;4.97;2.13;;;;;;;;;;5090183;28;20080;-39
2022/11/24 10:00:57;;;;;;;2.45;1.55;;;;;;;;;;5074064;28;20069;-39
2022/11/24 10:03:33;;;;;;;2.53;1.50;;;;;;;;;;5091859;28;20495;-38
2022/11/24 10:06:00;;;;;;;3.90;1.50;;;;;;;;;;5092604;28;20039;-39
2022/11/24 10:08:40;;;;;;;3.38;1.55;;;;;;;;;;5110588;28;20032;-39
2022/11/24 10:11:12;;;;;;;2.65;1.20;;;;;;;;;;5112440;28;20024;-39
2022/11/24 10:13:38;;;;;;;2.92;1.70;;;;;;;;;;5092262;28;20157;-38
2022/11/24 10:16:18;;;;;;;2.22;1.42;;;;;;;;;;5091596;28;20095;-38
2022/11/24 10:18:59;;;;;;;2.95;1.17;;;;;;;;;;5091519;28;20503;-39
2022/11/24 10:21:44;;;;;;;2.50;1.45;;;;;;;;;;5091539;28;20024;-39
2022/11/24 10:24:13;;;;;;;4.03;1.67;;;;;;;;;;5091505;28;20075;-38
2022/11/24 10:26:44;;;;;;;2.55;1.58;;;;;;;;;;5091934;28;20035;-39
2022/11/24 10:29:20;;;;;;;2.72;1.70;;;;;;;;;;5091901;28;20031;-39
2022/11/24 10:31:46;;;;;;;2.72;1.60;;;;;;;;;;5091267;28;20020;-39
2022/11/24 10:34:15;;;;;;;5.28;1.83;;;;;;;;;;5091303;28;20050;-39
2022/11/24 10:36:52;;;;;;;3.17;1.60;;;;;;;;;;5091168;28;20495;-38
2022/11/24 10:39:23;;;;;;;2.17;1.52;;;;;;;;;;5091394;28;20016;-39
2022/11/24 10:41:57;;;;;;;2.97;1.45;;;;;;;;;;5091063;28;20380;-38
2022/11/24 10:44:23;;;;;;;;;;;;;;;;;;5091624;28;20031;-39
2022/11/24 10:46:50;;;;;;;2.72;1.38;;;;;;;;;;5091559;28;19908;-38
2022/11/24 10:49:18;;;;;;;2.83;1.77;;;;;;;;;;5090882;28;20434;-39
2022/11/24 10:51:56;;;;;;;1.58;1.30;;;;;;;;;;5091057;28;20020;-38
2022/11/24 10:54:23;;;;;;;2.08;1.45;;;;;;;;;;5091063;28;20130;-39
2022/11/24 10:56:50;;;;;;;1.95;1.23;;;;;;;;;;5090944;28;20032;-39
2022/11/24 10:59:19;;;;;;;1.98;1.50;;;;;;;;;;5090957;28;20028;-39
2022/11/24 11:01:45;;;;;;;1.77;1.35;;;;;;;;;;5090842;28;20016;-39
2022/11/24 11:04:18;;;;;;;4.00;1.35;;;;;;;;;;5091414;28;20028;-39
2022/11/24 11:06:44;;;;;;;2.85;1.20;;;;;;;;;;5090708;28;20108;-39
2022/11/24 11:09:10;;;;;;;2.83;1.48;;;;;;;;;;5090439;28;20059;-39
2022/11/24 11:11:38;;;;;;;1.50;1.00;;;;;;;;;;5090606;28;20051;-39
2022/11/24 11:14:05;;;;;;;1.42;0.90;;;;;;;;;;5090530;28;20099;-39
2022/11/24 11:16:37;;;;;;;1.90;1.42;;;;;;;;;;5090530;28;20028;-39
2022/11/24 11:19:05;;;;;;;1.98;1.10;;;;;;;;;;5090475;28;20031;-39
2022/11/24 11:21:34;;;;;;;2.88;0.98;;;;;;;;;;5090480;28;20020;-39
2022/11/24 11:24:01;;;;;;;1.45;1.02;;;;;;;;;;5090484;28;20445;-39
2022/11/24 11:26:35;;;;;;;1.30;1.10;;;;;;;;;;5090149;28;20514;-39
2022/11/24 11:29:02;;;;;;;1.60;1.13;;;;;;;;;;5090363;28;20099;-39
2022/11/24 11:31:30;;;;;;;1.77;1.10;;;;;;;;;;5090359;28;20028;-39
2022/11/24 11:33:57;;;;;;;3.25;1.15;;;;;;;;;;5089908;28;20038;-39
2022/11/24 11:36:24;;;;;;;2.30;1.27;;;;;;;;;;5090193;28;20399;-39
2022/11/24 11:38:50;;;;;;;1.20;0.85;;;;;;;;;;5090067;28;20109;-39
2022/11/24 11:41:21;;;;;;;2.72;1.30;;;;;;;;;;5081541;28;20198;-39
2022/11/24 11:43:49;;;;;;;0.98;0.90;;;;;;;;;;5089944;28;20076;-39
2022/11/24 11:46:15;;;;;;;1.95;1.00;;;;;;;;;;5090062;28;20028;-39
2022/11/24 11:48:45;;;;;;;1.67;0.75;;;;;;;;;;5090891;28;20028;-39
2022/11/24 11:51:32;;;;;;;1.58;1.00;;;;;;;;;;5090364;28;20032;-39
2022/11/24 11:54:13;;;;;;;0.95;0.77;;;;;;;;;;5089725;28;20027;-39
2022/11/24 11:56:43;;;;;;;1.42;0.98;;;;;;;;;;5089559;28;20403;-39
2022/11/24 11:59:12;;;;;;;2.13;1.02;;;;;;;;;;5089725;28;20035;-38
2022/11/24 12:01:56;;;;;;;2.83;0.95;;;;;;;;;;5089520;28;20096;-39
2022/11/24 12:04:41;;;;;;;1.70;1.20;;;;;;;;;;5093770;28;20028;-39
2022/11/24 12:07:07;;;;;;;;;;;;;;;;;;5110819;28;20024;-39
2022/11/24 12:09:45;;;;;;;1.45;1.00;;;;;;;;;;5103368;28;19912;-39
2022/11/24 12:12:23;;;;;;;1.58;1.05;;;;;;;;;;5089302;28;20068;-39
2022/11/24 12:14:52;;;;;;;2.60;0.98;;;;;;;;;;5090005;28;20021;-39
2022/11/24 12:17:30;;;;;;;1.63;1.08;;;;;;;;;;5090024;28;20032;-39
2022/11/24 12:20:05;;;;;;;3.35;1.17;;;;;;;;;;5089210;28;20016;-39
2022/11/24 12:22:40;;;;;;;1.90;1.10;;;;;;;;;;5089115;28;20028;-39
2022/11/24 12:25:25;;;;;;;1.35;0.90;;;;;;;;;;5089210;28;20402;-39
2022/11/24 12:27:57;;;;;;;2.13;1.20;;;;;;;;;;5089984;28;20024;-39
2022/11/24 12:30:23;;;;;;;2.13;1.30;;;;;;;;;;5089292;28;20028;-39
2022/11/24 12:32:53;;;;;;;1.50;0.93;;;;;;;;;;5089696;28;20407;-39
2022/11/24 12:35:28;;;;;;;2.15;1.10;;;;;;;;;;5089544;28;20056;-39
2022/11/24 12:38:13;;;;;;;1.15;0.85;;;;;;;;;;5089139;28;20027;-39
2022/11/24 12:40:39;;;;;;;1.95;1.30;;;;;;;;;;5089006;28;20030;-39
2022/11/24 12:43:07;;;;;;;2.60;1.00;;;;;;;;;;5088937;28;20107;-39
2022/11/24 12:45:39;;;;;;;0.93;0.63;;;;;;;;;;5088861;28;20488;-39
2022/11/24 12:48:23;;;;;;;1.88;0.77;;;;;;;;;;5088969;28;20442;-39
2022/11/24 12:50:51;;;;;;;1.08;0.80;;;;;;;;;;5089630;28;20115;-39
2022/11/24 12:53:23;;;;;;;0.68;0.68;;;;;;;;;;5088874;28;20032;-39
2022/11/24 12:55:49;;;;;;;1.13;0.63;;;;;;;;;;5089421;28;20081;-39
2022/11/24 12:58:24;;;;;;;1.05;0.93;;;;;;;;;;5088808;28;20103;-39
2022/11/24 13:00:59;;;;;;;1.67;0.90;;;;;;;;;;5089489;28;20491;-39
2022/11/24 13:03:25;;;;;;;1.30;0.80;;;;;;;;;;5088794;28;20032;-39
2022/11/24 13:06:02;;;;;;;1.42;0.88;;;;;;;;;;5089417;28;20548;-39
2022/11/24 13:08:29;;;;;;;3.70;0.90;;;;;;;;;;5088574;28;20066;-39
2022/11/24 13:11:15;;;;;;;2.60;1.45;;;;;;;;;;5088501;28;20032;-39
2022/11/24 13:13:57;;;;;;;1.75;0.63;;;;;;;;;;5088755;28;20391;-39
2022/11/24 13:16:23;;;;;;;0.60;0.60;;;;;;;;;;5089123;28;20506;-39
2022/11/24 13:18:57;;;;;;;1.00;0.73;;;;;;;;;;5088567;28;20495;-39
2022/11/24 13:21:26;;;;;;;0.98;0.70;;;;;;;;;;5089172;28;20038;-39
2022/11/24 13:23:59;;;;;;;1.52;0.60;;;;;;;;;;5089128;28;20028;-39
2022/11/24 13:26:37;;;;;;;0.60;0.50;;;;;;;;;;5088862;28;20084;-39
2022/11/24 13:29:04;;;;;;;1.60;0.52;;;;;;;;;;5088589;28;20399;-39
2022/11/24 13:31:31;;;;;;;1.50;0.60;;;;;;;;;;5088472;28;20073;-39
2022/11/24 13:33:57;;;;;;;0.77;0.60;;;;;;;;;;5091912;28;20107;-39
2022/11/24 13:36:23;;;;;;;0.93;0.52;;;;;;;;;;5093112;28;20058;-39
2022/11/24 13:38:49;;;;;;;0.75;0.65;;;;;;;;;;5092376;28;20074;-39
2022/11/24 13:41:35;;;;;;;1.00;0.52;;;;;;;;;;5092459;28;20020;-39
2022/11/24 13:44:13;;;;;;;1.30;0.52;;;;;;;;;;5092181;28;20077;-39
2022/11/24 13:47:00;;;;;;;1.20;0.60;;;;;;;;;;5092391;28;20521;-39
2022/11/24 13:49:39;;;;;;;1.70;0.73;;;;;;;;;;5092837;28;20074;-39
2022/11/24 13:52:23;;;;;;;1.05;0.60;;;;;;;;;;5092098;28;20028;-39
2022/11/24 13:54:50;;;;;;;1.67;0.60;;;;;;;;;;5092069;28;20024;-39
2022/11/24 13:57:35;;;;;;;0.47;0.45;;;;;;;;;;5092078;28;20538;-39
2022/11/24 14:00:01;;;;;;;2.30;0.65;;;;;;;;;;5092084;28;20034;-39
2022/11/24 14:02:28;;;;;;;1.05;0.70;;;;;;;;;;5092664;28;20546;-39
2022/11/24 14:04:54;;;;;;;1.10;0.70;;;;;;;;;;5109208;28;20490;-39
2022/11/24 14:07:21;;;;;;;1.40;0.70;;;;;;;;;;5113500;28;20401;-39
2022/11/24 14:09:49;;;;;;;2.78;1.25;;;;;;;;;;5095122;28;20515;-39
2022/11/24 14:12:19;;;;;;;1.52;0.60;;;;;;;;;;5091674;28;20034;-39
2022/11/24 14:14:46;;;;;;;1.25;0.70;;;;;;;;;;5091763;28;20043;-39
2022/11/24 14:17:18;;;;;;;2.08;0.80;;;;;;;;;;5091760;28;20020;-39
2022/11/24 14:19:46;;;;;;;1.60;0.63;;;;;;;;;;5091753;28;20987;-39
2022/11/24 14:22:15;;;;;;;0.80;0.60;;;;;;;;;;5091923;28;20031;-39
2022/11/24 14:24:44;;;;;;;2.95;0.90;;;;;;;;;;5091596;28;20031;-39
2022/11/24 14:27:17;;;;;;;2.10;0.82;;;;;;;;;;5091447;28;20020;-39
2022/11/24 14:29:53;;;;;;;1.38;0.85;;;;;;;;;;5091437;28;20024;-39
2022/11/24 14:32:20;;;;;;;1.08;0.90;;;;;;;;;;5091718;28;20067;-39
2022/11/24 14:34:46;;;;;;;1.58;0.80;;;;;;;;;;5091482;28;20039;-39
2022/11/24 14:37:12;;;;;;;1.48;0.70;;;;;;;;;;5091386;28;20023;-39
2022/11/24 14:39:42;;;;;;;2.92;0.90;;;;;;;;;;5091317;28;20513;-39
2022/11/24 14:42:14;;;;;;;3.90;1.17;;;;;;;;;;5103887;27;20027;-39
2022/11/24 14:44:40;;;;;;;4.18;2.13;;;;;;;;;;5099720;28;20035;-39
2022/11/24 14:47:26;;;;;;;1.85;0.82;;;;;;;;;;5106705;28;20028;-39
2022/11/24 14:49:53;;;;;;;1.52;0.70;;;;;;;;;;5109254;28;20027;-39
2022/11/24 14:52:20;;;;;;;1.20;0.90;;;;;;;;;;5108350;28;20027;-39
2022/11/24 14:54:49;;;;;;;1.40;0.70;;;;;;;;;;5091564;28;20661;-39
2022/11/24 14:57:26;;;;;;;1.60;0.90;;;;;;;;;;5107765;28;20077;-39
2022/11/24 15:00:04;;;;;;;1.48;0.70;;;;;;;;;;5108345;28;20383;-39
2022/11/24 15:02:40;;;;;;;1.92;1.00;;;;;;;;;;5109267;28;20051;-39
2022/11/24 15:05:06;;;;;;;2.50;0.90;;;;;;;;;;5110337;28;20024;-39
2022/11/24 15:07:32;;;;;;;1.77;0.80;;;;;;;;;;5109753;28;20015;-39
2022/11/24 15:10:00;;;;;;;1.92;0.82;;;;;;;;;;5105821;28;20076;-39
2022/11/24 15:12:35;;;;;;;1.55;0.70;;;;;;;;;;5109500;27;20506;-39
2022/11/24 15:15:04;;;;;;;2.63;0.75;;;;;;;;;;5108304;28;20024;-39
2022/11/24 15:17:31;;;;;;;0.90;0.70;;;;;;;;;;5108949;28;20028;-39
2022/11/24 15:20:08;;;;;;;1.95;0.70;;;;;;;;;;5110798;28;20047;-39
2022/11/24 15:22:34;;;;;;;1.80;0.98;;;;;;;;;;5110553;28;20028;-39
2022/11/24 15:25:00;;;;;;;2.33;0.90;;;;;;;;;;5110627;28;20030;-39
2022/11/24 15:27:26;;;;;;;2.15;1.00;;;;;;;;;;5111421;28;20036;-39
2022/11/24 15:29:52;;;;;;;3.50;1.25;;;;;;;;;;5111273;28;20027;-39
2022/11/24 15:32:18;;;;;;;2.08;0.80;;;;;;;;;;5111070;28;20055;-39
2022/11/24 15:34:44;;;;;;;1.75;1.23;;;;;;;;;;5111462;28;20102;-39
2022/11/24 15:37:10;;;;;;;2.00;0.85;;;;;;;;;;5116323;27;20777;-39
2022/11/24 15:39:36;;;;;;;2.28;1.05;;;;;;;;;;5110825;28;20110;-39
2022/11/24 15:42:02;;;;;;;2.65;1.02;;;;;;;;;;5111140;28;20020;-39
2022/11/24 15:44:28;;;;;;;1.98;1.20;;;;;;;;;;5109939;28;20032;-39
2022/11/24 15:46:54;;;;;;;2.20;1.15;;;;;;;;;;5111446;28;20374;-39
2022/11/24 15:49:20;;;;;;;2.63;1.27;;;;;;;;;;5110148;28;20071;-39
2022/11/24 15:51:47;;;;;;;4.13;1.20;;;;;;;;;;5089775;28;20444;-39
2022/11/24 15:54:17;;;;;;;3.00;0.82;;;;;;;;;;5107863;28;20498;-39
2022/11/24 15:56:43;;;;;;;3.30;1.20;;;;;;;;;;5106830;28;20108;-39
2022/11/24 15:59:16;;;;;;;2.30;1.08;;;;;;;;;;5127739;27;20035;-39
2022/11/24 16:01:42;;;;;;;2.22;1.20;;;;;;;;;;5116881;27;20031;-39
2022/11/24 16:04:08;;;;;;;2.30;1.10;;;;;;;;;;5110433;28;20011;-39
2022/11/24 16:06:34;;;;;;;3.50;1.80;;;;;;;;;;5110925;28;20098;-38
2022/11/24 16:09:01;;;;;;;6.20;2.67;;;;;;;;;;5091881;28;20024;-39
2022/11/24 16:11:27;;;;;;;5.10;2.63;;;;;;;;;;5098957;28;20028;-38
2022/11/24 16:13:53;;;;;;;4.03;2.35;;;;;;;;;;5111265;28;20399;-39
2022/11/24 16:16:19;;;;;;;5.50;2.55;;;;;;;;;;5109969;28;20103;-38
2022/11/24 16:18:45;;;;;;;5.43;3.00;;;;;;;;;;5110317;28;20027;-39
2022/11/24 16:21:11;;;;;;;4.07;2.45;;;;;;;;;;5107691;28;20036;-39
2022/11/24 16:23:37;;;;;;;4.13;2.17;;;;;;;;;;5090355;28;20020;-39
2022/11/24 16:26:04;;;;;;;4.43;2.80;;;;;;;;;;5097339;28;20034;-39
2022/11/24 16:28:30;;;;;;;4.95;2.67;;;;;;;;;;5109850;28;20030;-39
2022/11/24 16:30:56;;;;;;;5.13;3.22;;;;;;;;;;5103635;28;20483;-39
2022/11/24 16:33:23;;;;;;;6.15;4.05;;;;;;;;;;5102189;28;20383;-39
2022/11/24 16:35:50;;;;;;;7.72;4.28;;;;;;;;;;5110500;28;20044;-39
2022/11/24 16:38:17;;;;;;;7.05;3.70;;;;;;;;;;5084885;28;20372;-39
2022/11/24 16:40:43;;;;;;;6.38;3.85;;;;;;;;;;5108446;28;20020;-39
2022/11/24 16:43:09;;;;;;;7.18;3.85;;;;;;;;;;5103906;28;20510;-39
2022/11/24 16:45:35;;;;;;;4.95;3.03;;;;;;;;;;5106681;27;20039;-39
2022/11/24 16:48:01;;;;;;;5.97;3.08;;;;;;;;;;5099047;28;20024;-39
2022/11/24 16:50:27;;;;;;;5.78;3.25;;;;;;;;;;5090514;28;20020;-38
2022/11/24 16:52:53;;;;;;;6.45;3.53;;;;;;;;;;5104133;28;20474;-38
2022/11/24 16:55:19;;;;;;;6.63;3.58;;;;;;;;;;5085502;28;20136;-39
2022/11/24 16:57:47;;;;;;;9.25;4.18;;;;;;;;;;5083246;28;20024;-39
2022/11/24 17:00:13;;;;;;;6.93;3.75;;;;;;;;;;5097724;28;20085;-39
2022/11/24 17:02:39;;;;;;;7.80;4.03;;;;;;;;;;5101601;28;20039;-39
2022/11/24 17:05:05;;;;;;;8.30;3.60;;;;;;;;;;5098708;28;20552;-39
2022/11/24 17:07:32;;;;;;;5.68;3.15;;;;;;;;;;5096891;28;20036;-38
2022/11/24 17:09:59;;;;;;;5.63;3.40;;;;;;;;;;5125017;27;20367;-38
2022/11/24 17:12:25;;;;;;;5.35;3.00;;;;;;;;;;5127502;28;20397;-39
2022/11/24 17:14:51;;;;;;;5.20;2.92;;;;;;;;;;5100576;28;20514;-38
2022/11/24 17:17:17;;;;;;;5.88;2.97;;;;;;;;;;5104272;28;20066;-38
2022/11/24 17:19:43;;;;;;;4.38;2.65;;;;;;;;;;5102096;28;20450;-39
2022/11/24 17:22:09;;;;;;;5.95;2.85;;;;;;;;;;5098734;28;20080;-38
2022/11/24 17:24:35;;;;;;;4.70;3.05;;;;;;;;;;5098849;28;20079;-38
2022/11/24 17:27:01;;;;;;;5.05;3.15;;;;;;;;;;5095936;28;20103;-39
2022/11/24 17:29:28;;;;;;;5.78;3.22;;;;;;;;;;5129905;28;20474;-39
2022/11/24 17:31:54;;;;;;;5.13;2.70;;;;;;;;;;5120837;28;20395;-39
2022/11/24 17:34:21;;;;;;;6.13;3.25;;;;;;;;;;5108689;28;20539;-39
2022/11/24 17:36:47;;;;;;;5.43;3.03;;;;;;;;;;5107523;28;20161;-39
2022/11/24 17:39:13;;;;;;;5.25;3.00;;;;;;;;;;5089701;28;20091;-39
2022/11/24 17:41:40;;;;;;;7.25;3.70;;;;;;;;;;5097909;28;20106;-39
2022/11/24 17:44:07;;;;;;;8.23;4.47;;;;;;;;;;5077359;28;20398;-39
2022/11/24 17:46:33;;;;;;;8.23;4.32;;;;;;;;;;5101183;28;20085;-39
2022/11/24 17:48:59;;;;;;;9.38;4.72;;;;;;;;;;5080900;28;20573;-39
2022/11/24 17:51:25;;;;;;;8.88;4.35;;;;;;;;;;5090526;28;20090;-39
2022/11/24 17:53:52;;;;;;;7.35;4.25;;;;;;;;;;5079024;28;20028;-39
2022/11/24 17:56:22;;;;;;;6.60;3.83;;;;;;;;;;5096012;28;20024;-39
2022/11/24 17:58:48;;;;;;;7.15;4.03;;;;;;;;;;5104171;28;20043;-39
2022/11/24 18:01:14;;;;;;;7.68;3.88;;;;;;;;;;5088547;28;20060;-39
2022/11/24 18:03:41;;;;;;;7.00;4.15;;;;;;;;;;5100205;28;20069;-39
2022/11/24 18:06:08;;;;;;;8.07;4.13;;;;;;;;;;5093333;28;20096;-39
2022/11/24 18:08:38;;;;;;;6.95;4.05;;;;;;;;;;5090820;28;20031;-39
2022/11/24 18:11:05;;;;;;;9.15;4.57;;;;;;;;;;5086788;28;20036;-39
2022/11/24 18:13:31;;;;;;;7.53;3.78;;;;;;;;;;5090934;28;20030;-39
2022/11/24 18:16:00;;;;;;;7.28;4.05;;;;;;;;;;5093029;28;20491;-39
2022/11/24 18:18:26;;;;;;;8.15;4.22;;;;;;;;;;5076102;28;20070;-39
2022/11/24 18:20:53;;;;;;;5.05;3.35;;;;;;;;;;5071977;28;20028;-39
2022/11/24 18:23:19;;;;;;;6.40;3.13;;;;;;;;;;5103804;28;20122;-39
2022/11/24 18:25:51;;;;;;;5.22;3.05;;;;;;;;;;5109659;28;20088;-39
2022/11/24 18:28:18;;;;;;;6.72;3.60;;;;;;;;;;5108920;28;20020;-39
2022/11/24 18:30:44;;;;;;;5.82;3.10;;;;;;;;;;5108062;28;20036;-39
2022/11/24 18:33:10;;;;;;;6.50;3.33;;;;;;;;;;5102125;28;20107;-39
2022/11/24 18:35:38;;;;;;;6.47;3.10;;;;;;;;;;5094603;28;20107;-39
2022/11/24 18:38:05;;;;;;;7.57;3.55;;;;;;;;;;5073146;28;20024;-39
2022/11/24 18:40:31;;;;;;;7.05;3.90;;;;;;;;;;5106290;28;20038;-39
2022/11/24 18:42:57;;;;;;;6.30;3.40;;;;;;;;;;5110203;28;20380;-39
2022/11/24 18:45:24;;;;;;;6.55;3.72;;;;;;;;;;5092185;28;20346;-39
2022/11/24 18:47:50;;;;;;;5.75;3.50;;;;;;;;;;5089115;28;20028;-39
2022/11/24 18:50:16;;;;;;;4.93;3.05;;;;;;;;;;5089556;28;20032;-39
2022/11/24 18:52:42;;;;;;;6.88;3.78;;;;;;;;;;5093914;28;20063;-39
2022/11/24 18:55:08;;;;;;;7.60;4.10;;;;;;;;;;5094371;28;20098;-39
2022/11/24 18:57:34;;;;;;;6.80;3.95;;;;;;;;;;5089478;28;20058;-39
2022/11/24 19:00:00;;;;;;;6.85;4.00;;;;;;;;;;5075814;28;20023;-39
2022/11/24 19:02:26;;;;;;;8.38;4.28;;;;;;;;;;5104452;28;20040;-39
2022/11/24 19:04:52;;;;;;;7.65;4.18;;;;;;;;;;5099770;28;20059;-39
2022/11/24 19:07:19;;;;;;;8.75;4.38;;;;;;;;;;5091507;28;20075;-39
2022/11/24 19:09:45;;;;;;;8.75;4.50;;;;;;;;;;5096835;28;20032;-39
2022/11/24 19:12:11;;;;;;;6.82;4.35;;;;;;;;;;5104389;28;20126;-39
2022/11/24 19:14:37;;;;;;;9.43;4.78;;;;;;;;;;5104235;28;20098;-39
2022/11/24 19:17:03;;;;;;;7.50;4.00;;;;;;;;;;5095800;28;20441;-39
2022/11/24 19:19:33;;;;;;;10.68;4.50;;;;;;;;;;5109203;28;20020;-39
2022/11/24 19:21:59;;;;;;;9.43;4.38;;;;;;;;;;5076228;28;20080;-39
2022/11/24 19:24:25;;;;;;;6.70;3.80;;;;;;;;;;5103735;28;20031;-39
2022/11/24 19:26:51;;;;;;;7.47;3.85;;;;;;;;;;5086822;28;20024;-39
2022/11/24 19:29:17;;;;;;;7.40;3.95;;;;;;;;;;5095397;28;20024;-39
2022/11/24 19:31:43;;;;;;;7.38;3.83;;;;;;;;;;5089664;28;20538;-39
2022/11/24 19:34:10;;;;;;;7.53;3.58;;;;;;;;;;5105073;27;20032;-39
2022/11/24 19:36:36;;;;;;;6.68;3.92;;;;;;;;;;5098797;28;20028;-39
2022/11/24 19:39:03;;;;;;;7.32;3.72;;;;;;;;;;5100165;27;20494;-39
2022/11/24 19:41:30;;;;;;;10.23;4.50;;;;;;;;;;5128239;27;20034;-39
2022/11/24 19:43:57;;;;;;;8.98;4.68;;;;;;;;;;5127689;27;20148;-39
2022/11/24 19:46:25;;;;;;;8.85;4.38;;;;;;;;;;5122262;27;20091;-39
2022/11/24 19:48:55;;;;;;;9.13;4.80;;;;;;;;;;5107015;28;20517;-39
2022/11/24 19:51:32;;;;;;;10.00;4.18;;;;;;;;;;5106329;28;20034;-39
2022/11/24 19:53:59;;;;;;;8.55;4.10;;;;;;;;;;5108671;28;20108;-39
2022/11/24 19:56:26;;;;;;;9.23;4.88;;;;;;;;;;5107667;28;20409;-39